createdAt,value
2023-05-17T00:06:05.357Z,9.10
2023-05-17T00:14:28.378Z,10.40
2023-05-17T00:22:51.891Z,9.80
2023-05-17T00:31:14.797Z,12.00
2023-05-17T00:39:37.655Z,9.10
2023-05-17T00:48:01.320Z,8.10
2023-05-17T00:56:25.338Z,6.70
2023-05-17T01:04:49.473Z,8.00
2023-05-17T01:13:20.168Z,7.00
2023-05-17T01:21:56.920Z,8.50
2023-05-17T01:30:20.872Z,7.20
2023-05-17T01:38:43.759Z,6.10
2023-05-17T01:47:15.771Z,6.60
2023-05-17T01:55:48.717Z,6.90
2023-05-17T02:04:13.007Z,7.40
2023-05-17T02:12:35.929Z,6.10
2023-05-17T02:20:58.834Z,7.10
2023-05-17T02:29:21.785Z,6.60
2023-05-17T02:37:44.871Z,7.50
2023-05-17T02:46:08.964Z,6.60
2023-05-17T02:54:34.202Z,7.30
2023-05-17T03:02:57.320Z,6.50
2023-05-17T03:11:20.645Z,6.60
2023-05-17T03:19:43.673Z,7.60
2023-05-17T03:28:06.806Z,7.00
2023-05-17T03:36:30.024Z,7.20
2023-05-17T03:44:54.196Z,7.60
2023-05-17T03:53:17.200Z,7.00
2023-05-17T04:01:40.753Z,7.50
2023-05-17T04:10:05.736Z,6.50
2023-05-17T04:18:29.286Z,8.10
2023-05-17T04:26:52.389Z,5.50
2023-05-17T04:35:17.729Z,6.00
2023-05-17T04:43:42.285Z,6.10
2023-05-17T04:52:10.771Z,6.10
2023-05-17T05:00:35.284Z,5.50
2023-05-17T05:09:01.185Z,6.50
2023-05-17T05:17:24.373Z,5.00
2023-05-17T05:25:47.805Z,5.20
2023-05-17T05:34:11.027Z,5.60
2023-05-17T05:42:34.273Z,5.20
2023-05-17T05:50:57.410Z,4.40
2023-05-17T05:59:20.840Z,5.30
2023-05-17T06:07:44.027Z,6.40
2023-05-17T06:16:07.124Z,3.80
2023-05-17T06:24:29.972Z,3.60
2023-05-17T06:32:52.976Z,4.30
2023-05-17T06:41:15.844Z,4.30
2023-05-17T06:49:38.897Z,4.30
2023-05-17T06:58:01.872Z,4.00
2023-05-17T07:06:24.885Z,3.50
2023-05-17T07:14:47.869Z,4.50
2023-05-17T07:23:10.847Z,4.00
2023-05-17T07:31:34.844Z,4.60
2023-05-17T07:39:58.015Z,4.80
2023-05-17T07:48:21.064Z,4.00
2023-05-17T07:56:43.975Z,4.00
2023-05-17T08:05:08.478Z,3.50
2023-05-17T08:13:31.384Z,4.50
2023-05-17T08:21:54.360Z,3.40
2023-05-17T08:30:28.259Z,3.20
2023-05-17T08:38:53.127Z,3.20
2023-05-17T08:47:26.221Z,4.90
2023-05-17T08:55:51.586Z,2.80
2023-05-17T09:04:16.360Z,5.50
2023-05-17T09:12:39.452Z,2.50
2023-05-17T09:21:04.971Z,2.60
2023-05-17T09:29:32.490Z,2.40
2023-05-17T09:38:05.091Z,2.60
2023-05-17T09:46:29.205Z,2.50
2023-05-17T09:54:57.085Z,3.20
2023-05-17T10:11:47.352Z,2.50
2023-05-17T10:20:11.504Z,3.30
2023-05-17T10:28:36.453Z,5.10
2023-05-17T10:37:00.532Z,2.30
2023-05-17T10:45:27.810Z,2.00
2023-05-17T10:54:02.758Z,2.00
2023-05-17T11:02:27.326Z,2.10
2023-05-17T11:11:17.397Z,3.70
2023-05-17T11:19:57.986Z,4.40
2023-05-17T11:28:22.374Z,3.40
2023-05-17T11:36:51.901Z,2.20
2023-05-17T11:45:14.795Z,3.70
2023-05-17T11:53:37.906Z,2.50
2023-05-17T12:02:00.902Z,2.90
2023-05-17T12:10:23.832Z,1.50
2023-05-17T12:18:51.803Z,1.80
2023-05-17T12:35:38.256Z,3.70
2023-05-17T12:44:13.738Z,1.80
2023-05-17T12:52:40.685Z,2.40
2023-05-17T13:01:06.988Z,5.70
2023-05-17T13:09:32.277Z,3.00
2023-05-17T13:17:55.407Z,2.90
2023-05-17T13:26:19.024Z,3.30
2023-05-17T13:34:41.948Z,3.80
2023-05-17T13:43:04.933Z,2.60
2023-05-17T13:51:27.989Z,2.60
2023-05-17T13:59:50.865Z,5.70
2023-05-17T14:08:14.050Z,3.10
2023-05-17T14:16:40.601Z,4.60
2023-05-17T14:25:03.903Z,2.70
2023-05-17T14:33:28.279Z,5.60
2023-05-17T14:41:51.217Z,6.20
2023-05-17T14:50:16.344Z,7.70
2023-05-17T14:58:39.359Z,11.30
2023-05-17T15:07:02.394Z,7.70
2023-05-17T15:15:25.203Z,7.50
2023-05-17T15:23:50.061Z,7.30
2023-05-17T15:32:12.930Z,6.60
2023-05-17T15:40:35.827Z,6.80
2023-05-17T15:48:58.753Z,6.00
2023-05-17T15:57:21.582Z,7.20
2023-05-17T16:05:44.894Z,7.50
2023-05-17T16:14:09.373Z,9.90
2023-05-17T16:22:33.128Z,11.00
2023-05-17T16:30:56.301Z,9.40
2023-05-17T16:39:19.260Z,10.50
2023-05-17T16:47:42.384Z,8.80
2023-05-17T16:56:05.596Z,12.20
2023-05-17T17:04:28.572Z,10.10
2023-05-17T17:12:51.467Z,10.70
2023-05-17T17:21:14.691Z,10.90
2023-05-17T17:29:37.931Z,10.50
2023-05-17T17:38:03.077Z,12.30
2023-05-17T17:46:26.117Z,12.50
2023-05-17T17:54:49.567Z,10.60
2023-05-17T18:03:13.126Z,8.30
2023-05-17T18:11:36.484Z,9.90
2023-05-17T18:19:59.414Z,12.20
2023-05-17T18:28:33.891Z,9.60
2023-05-17T18:37:04.582Z,10.00
2023-05-17T18:45:28.414Z,12.00
2023-05-17T18:53:51.463Z,43.00
2023-05-17T19:02:14.360Z,13.10
2023-05-17T19:10:37.264Z,12.60
2023-05-17T19:19:00.310Z,11.80
2023-05-17T19:27:23.213Z,9.00
2023-05-17T19:35:46.641Z,15.90
2023-05-17T19:44:09.709Z,12.30
2023-05-17T19:52:32.605Z,14.30
2023-05-17T20:00:55.573Z,11.60
2023-05-17T20:09:20.687Z,10.30
2023-05-17T20:17:43.680Z,8.50
2023-05-17T20:26:06.594Z,13.50
2023-05-17T20:34:29.632Z,12.00
2023-05-17T20:42:53.468Z,10.50
2023-05-17T20:51:19.812Z,10.40
2023-05-17T20:59:42.854Z,13.40
2023-05-17T21:08:12.875Z,15.60
2023-05-17T21:16:35.902Z,9.80
2023-05-17T21:24:58.846Z,16.30
2023-05-17T21:33:21.879Z,9.50
2023-05-17T21:41:44.854Z,13.10
2023-05-17T21:50:08.317Z,12.30
2023-05-17T21:58:31.951Z,12.60
2023-05-17T22:06:56.312Z,13.00
2023-05-17T22:15:20.084Z,11.10
2023-05-17T22:23:43.362Z,10.90
2023-05-17T22:32:06.693Z,8.50
2023-05-17T22:40:29.938Z,11.10
2023-05-17T22:48:58.094Z,10.80
2023-05-17T22:57:21.066Z,15.40
2023-05-17T23:05:45.558Z,12.80
2023-05-17T23:14:08.426Z,11.70
2023-05-17T23:22:33.876Z,11.70
2023-05-17T23:31:01.395Z,13.40
2023-05-17T23:39:24.288Z,10.10
2023-05-17T23:47:47.665Z,13.90
2023-05-17T23:56:10.758Z,16.50
